createdAt,value
2018-03-26T12:54:45.333Z,5.23
2018-03-26T13:00:26.446Z,5.67
2018-03-26T13:03:12.773Z,4.00
2018-03-26T13:06:08.573Z,4.67
2018-03-26T13:11:47.714Z,3.90
2018-03-26T13:14:18.015Z,3.40
2018-03-26T13:16:50.337Z,2.70
2018-03-26T13:19:21.684Z,1.90
2018-03-26T13:21:53.968Z,1.73
2018-03-26T13:24:25.053Z,2.03
2018-03-26T13:27:09.175Z,2.57
2018-03-26T13:29:37.492Z,2.90
2018-03-26T13:32:10.185Z,2.50
2018-03-26T13:35:12.486Z,2.13
2018-03-26T13:40:50.524Z,2.10
2018-03-26T13:43:20.222Z,3.03
2018-03-26T13:45:47.224Z,2.47
2018-03-26T13:48:16.279Z,3.50
2018-03-26T13:50:44.639Z,3.30
2018-03-26T13:53:11.846Z,3.80
2018-03-26T13:55:39.332Z,3.70
2018-03-26T13:58:07.531Z,3.77
2018-03-26T14:03:31.640Z,2.23
2018-03-26T14:05:59.766Z,1.53
2018-03-26T14:08:46.160Z,1.97
2018-03-26T14:11:31.161Z,2.07
2018-03-26T14:14:16.557Z,1.70
2018-03-26T14:17:03.018Z,1.90
2018-03-26T14:19:39.475Z,1.80
2018-03-26T14:22:06.729Z,2.40
2018-03-26T14:24:34.613Z,2.20
2018-03-26T14:27:03.910Z,2.10
2018-03-26T14:29:32.736Z,2.23
2018-03-26T14:32:03.229Z,1.87
2018-03-26T14:34:46.699Z,2.50
2018-03-26T14:40:30.885Z,2.00
2018-03-26T14:43:02.763Z,1.70
2018-03-26T14:48:10.203Z,1.80
2018-03-26T15:17:16.601Z,1.37
2018-03-26T15:19:43.573Z,2.40
2018-03-26T15:22:10.677Z,1.30
2018-03-26T15:24:37.637Z,1.57
2018-03-26T15:27:13.849Z,2.00
2018-03-26T15:29:41.990Z,1.70
2018-03-26T15:32:28.275Z,1.80
2018-03-26T15:35:01.076Z,1.87
2018-03-26T15:37:28.795Z,2.33
2018-03-26T15:40:33.508Z,2.33
2018-03-26T15:43:03.901Z,1.70
2018-03-26T15:45:33.402Z,2.60
2018-03-26T15:48:04.035Z,2.80
2018-03-26T15:50:31.116Z,3.20
2018-03-26T15:52:58.294Z,2.80
2018-03-26T15:55:26.670Z,2.50
2018-03-26T15:57:54.760Z,2.70
2018-03-26T16:00:21.812Z,2.67
2018-03-26T16:02:54.821Z,3.40
2018-03-26T16:05:22.190Z,3.07
2018-03-26T16:07:52.378Z,3.77
2018-03-26T16:10:20.387Z,2.70
2018-03-26T16:12:51.183Z,2.73
2018-03-26T16:15:21.453Z,2.50
2018-03-26T16:17:49.387Z,3.40
2018-03-26T16:20:17.592Z,3.67
2018-03-26T16:22:44.600Z,3.50
2018-03-26T16:25:12.210Z,3.10
2018-03-26T16:27:39.514Z,3.60
2018-03-26T16:30:11.879Z,3.80
2018-03-26T16:32:39.976Z,3.83
2018-03-26T17:14:34.018Z,3.30
2018-03-26T17:17:05.763Z,3.90
2018-03-26T17:19:36.616Z,5.03
2018-03-26T17:22:11.001Z,5.50
2018-03-26T17:24:39.975Z,4.00
2018-03-26T17:27:10.729Z,4.00
2018-03-26T17:29:41.043Z,8.37
2018-03-26T17:32:12.896Z,4.60
2018-03-26T17:34:44.069Z,4.10
2018-03-26T17:37:16.971Z,4.20
2018-03-26T17:39:45.704Z,6.17
2018-03-26T17:42:29.569Z,4.30
2018-03-26T17:44:58.300Z,4.00
2018-03-26T17:47:27.261Z,9.80
2018-03-26T17:49:56.246Z,6.50
2018-03-26T17:52:26.599Z,5.77
2018-03-26T17:54:55.449Z,4.80
2018-03-26T17:57:24.269Z,4.90
2018-03-26T17:59:53.134Z,6.30
2018-03-26T18:02:21.773Z,5.70
2018-03-26T18:04:51.338Z,4.53
2018-03-26T18:07:20.191Z,5.50
2018-03-26T19:06:38.340Z,5.13
2018-03-26T19:11:50.744Z,5.33
2018-03-26T19:15:03.903Z,5.60
2018-03-26T19:17:41.746Z,6.00
2018-03-26T19:20:14.332Z,5.43
2018-03-26T19:23:03.301Z,6.07
2018-03-26T19:26:00.497Z,4.93
2018-03-26T19:31:50.038Z,5.50
2018-03-26T19:34:33.963Z,6.30
2018-03-26T19:38:54.743Z,6.10
2018-03-26T19:41:37.013Z,5.40
2018-03-26T19:44:11.903Z,6.37
2018-03-26T19:46:50.511Z,6.40
2018-03-26T19:49:31.491Z,5.27
2018-03-26T19:52:11.272Z,4.77
2018-03-26T19:54:41.677Z,5.20
2018-03-26T19:57:27.529Z,5.00
2018-03-26T20:00:02.459Z,5.53
2018-03-26T20:03:03.703Z,4.90
2018-03-26T20:05:42.369Z,4.50
2018-03-26T21:18:17.131Z,7.93
2018-03-26T21:21:02.260Z,8.05
2018-03-26T21:23:40.382Z,8.03
2018-03-26T21:27:24.729Z,7.75
2018-03-26T21:33:11.593Z,7.00
